Time;durP1;ratioP1;P1;durP2;ratioP2;P2;SDS_P1;SDS_P2;PMS_P1;PMS_P2;Temp;Humidity;BMP_temperature;BMP_pressure;BME280_temperature;BME280_humidity;BME280_pressure;Samples;Min_cycle;Max_cycle;Signal;HPM_P1;HPM_P2
2021/10/30 00:04:14;;;;;;;1999.90;999.90;;;;;;;10.48;63.05;100739.78;15620962;28;20093;-61
2021/10/30 00:11:46;;;;;;;1999.90;999.90;;;;;;;10.80;61.92;100736.41;15619930;28;20042;-60
2021/10/30 00:19:20;;;;;;;1999.90;999.90;;;;;;;10.86;61.90;100754.63;15601775;28;20425;-62
2021/10/30 00:26:53;;;;;;;1999.90;999.90;;;;;;;10.48;62.77;100735.03;15608045;28;20089;-61
2021/10/30 00:34:26;;;;;;;1999.90;999.90;;;;;;;10.73;62.60;100733.28;15540497;28;20046;-61
2021/10/30 00:42:00;;;;;;;1999.90;999.90;;;;;;;10.78;62.12;100732.31;15557250;28;20475;-62
2021/10/30 00:49:34;;;;;;;1999.90;999.90;;;;;;;10.76;62.01;100746.59;15539879;28;20050;-61
2021/10/30 00:57:08;;;;;;;1999.90;999.90;;;;;;;10.42;63.34;100728.00;15543792;28;20046;-61
2021/10/30 01:04:43;;;;;;;1999.90;999.90;;;;;;;10.64;62.50;100724.16;15569822;28;20524;-61
2021/10/30 01:12:15;;;;;;;1999.90;999.90;;;;;;;10.60;62.37;100728.75;15551331;28;20133;-61
2021/10/30 01:19:52;;;;;;;1999.90;999.90;;;;;;;10.65;62.84;100731.38;15551251;28;20088;-61
2021/10/30 01:27:25;;;;;;;1999.90;999.90;;;;;;;10.53;62.72;100717.31;15567772;28;20041;-62
2021/10/30 01:34:58;;;;;;;1999.90;999.90;;;;;;;10.37;63.24;100711.41;15629439;28;20056;-60
2021/10/30 01:42:31;;;;;;;1999.90;999.90;;;;;;;10.54;63.27;100714.19;15628656;28;20047;-61
2021/10/30 01:50:06;;;;;;;1999.90;999.90;;;;;;;10.03;64.73;100718.66;15628242;28;20049;-61
2021/10/30 01:57:39;;;;;;;1999.90;999.90;;;;;;;10.27;63.90;100722.94;15609355;28;20525;-60
2021/10/30 02:05:14;;;;;;;1999.90;999.90;;;;;;;10.08;64.31;100717.66;15592890;28;20053;-61
2021/10/30 02:12:46;;;;;;;1999.90;999.90;;;;;;;9.98;65.08;100701.28;15609446;28;20040;-59
2021/10/30 02:20:22;;;;;;;1999.90;999.90;;;;;;;10.27;64.25;100697.81;15608513;28;20116;-60
2021/10/30 02:27:54;;;;;;;1999.90;999.90;;;;;;;10.12;64.21;100699.16;15606598;28;20069;-61
2021/10/30 02:35:28;;;;;;;1999.90;999.90;;;;;;;10.23;64.14;100694.91;15563996;28;20461;-60
2021/10/30 02:43:01;;;;;;;1999.90;999.90;;;;;;;10.21;64.16;100708.28;15530376;28;20049;-61
2021/10/30 02:50:34;;;;;;;1999.90;999.90;;;;;;;10.28;64.25;100707.81;15563343;28;20080;-61
2021/10/30 02:58:07;;;;;;;1999.90;999.90;;;;;;;10.36;63.38;100727.34;15545139;28;20042;-61
2021/10/30 03:05:41;;;;;;;1999.90;999.90;;;;;;;10.20;63.91;100728.97;15545663;28;20046;-60
2021/10/30 03:13:13;;;;;;;1999.90;999.90;;;;;;;10.08;64.12;100726.03;15561882;28;20050;-60
2021/10/30 03:20:47;;;;;;;1999.90;999.90;;;;;;;9.89;64.83;100722.75;15560485;28;20414;-60
2021/10/30 03:28:20;;;;;;;1999.90;999.90;;;;;;;9.81;65.25;100713.28;15566732;28;20056;-60
2021/10/30 03:35:54;;;;;;;1999.90;999.90;;;;;;;9.72;65.51;100707.69;15621942;28;20106;-61
2021/10/30 03:43:28;;;;;;;1999.90;999.90;;;;;;;9.83;65.36;100705.41;15622144;28;20120;-61
2021/10/30 03:51:03;;;;;;;1999.90;999.90;;;;;;;9.68;65.24;100717.00;15621051;28;20092;-60
2021/10/30 03:58:36;;;;;;;1999.90;999.90;;;;;;;9.53;65.42;100698.81;15621285;28;20041;-58
2021/10/30 04:06:10;;;;;;;1999.90;999.90;;;;;;;9.42;66.35;100697.50;15602938;28;20100;-61
2021/10/30 04:13:42;;;;;;;1999.90;999.90;;;;;;;9.40;66.02;100708.16;15620139;28;20053;-59
2021/10/30 04:21:16;;;;;;;1999.90;999.90;;;;;;;9.25;66.74;100699.09;15585952;28;20046;-61
2021/10/30 04:28:50;;;;;;;1999.90;999.90;;;;;;;9.28;66.08;100689.31;15575469;28;20210;-63
2021/10/30 04:36:25;;;;;;;1999.90;999.90;;;;;;;9.19;66.41;100694.84;15558118;28;20038;-63
2021/10/30 04:43:58;;;;;;;1999.90;999.90;;;;;;;8.97;66.89;100694.97;15557611;28;20125;-62
2021/10/30 04:51:33;;;;;;;1999.90;999.90;;;;;;;8.93;67.26;100685.59;15541250;28;20537;-63
2021/10/30 04:59:05;;;;;;;1999.90;999.90;;;;;;;8.92;66.84;100679.22;15557505;28;20050;-62
2021/10/30 05:06:39;;;;;;;1999.90;999.90;;;;;;;8.81;67.06;100666.75;15555559;28;20056;-63
2021/10/30 05:14:12;;;;;;;1999.90;999.90;;;;;;;8.91;67.19;100657.28;15537492;28;20530;-63
2021/10/30 05:21:46;;;;;;;1999.90;999.90;;;;;;;8.93;67.76;100641.06;15537787;28;20066;-63
2021/10/30 05:29:18;;;;;;;1999.90;999.90;;;;;;;9.05;67.06;100652.38;15586685;28;20052;-62
2021/10/30 05:36:54;;;;;;;1999.90;999.90;;;;;;;8.75;67.59;100648.53;15602655;28;20048;-63
2021/10/30 05:44:38;;;;;;;1999.90;999.90;;;;;;;8.47;67.72;100653.53;15609578;28;20677;-61
2021/10/30 05:52:13;;;;;;;1999.90;999.90;;;;;;;8.48;68.13;100635.69;15631864;28;20101;-61
2021/10/30 05:59:46;;;;;;;1999.90;999.90;;;;;;;8.30;68.59;100640.31;15631559;28;20049;-62
2021/10/30 06:07:23;;;;;;;1999.90;999.90;;;;;;;8.21;68.57;100642.22;15630549;28;20049;-62
2021/10/30 06:14:56;;;;;;;1999.90;999.90;;;;;;;8.13;68.52;100647.75;15629636;28;20494;-61
2021/10/30 06:22:30;;;;;;;1999.90;999.90;;;;;;;8.03;69.30;100649.69;15629461;28;20132;-61
2021/10/30 06:30:04;;;;;;;1999.90;999.90;;;;;;;7.98;69.40;100660.09;15591503;28;20417;-61
2021/10/30 06:37:39;;;;;;;1999.90;999.90;;;;;;;8.06;69.35;100657.38;15581057;28;20490;-62
2021/10/30 06:45:12;;;;;;;1999.90;999.90;;;;;;;8.09;69.35;100648.38;15549664;28;20129;-62
2021/10/30 06:52:48;;;;;;;1999.90;999.90;;;;;;;8.35;69.20;100662.47;15574920;28;20053;-63
2021/10/30 07:00:21;;;;;;;1999.90;999.90;;;;;;;8.76;68.84;100652.19;15567957;28;20149;-62
2021/10/30 07:07:55;;;;;;;1999.90;999.90;;;;;;;9.35;67.46;100653.41;15550073;28;20046;-62
2021/10/30 07:15:27;;;;;;;1999.90;999.90;;;;;;;10.04;65.94;100641.44;15567128;28;20046;-62
2021/10/30 07:23:02;;;;;;;1999.90;999.90;;;;;;;10.73;63.81;100635.63;15566243;28;20046;-62
2021/10/30 07:30:34;;;;;;;1999.90;999.90;;;;;;;10.88;63.39;100654.59;15590174;28;20077;-62
2021/10/30 07:38:08;;;;;;;1999.90;999.90;;;;;;;10.43;65.53;100653.50;15608293;28;20046;-62
2021/10/30 07:45:42;;;;;;;1999.90;999.90;;;;;;;11.04;63.95;100662.38;15613790;28;20072;-64
2021/10/30 07:53:16;;;;;;;1999.90;999.90;;;;;;;11.77;62.33;100637.66;15625053;28;20056;-63
2021/10/30 08:00:48;;;;;;;1999.90;999.90;;;;;;;11.85;61.80;100637.63;15663577;28;20055;-63
2021/10/30 08:08:22;;;;;;;1999.90;999.90;;;;;;;12.66;60.11;100638.88;15644733;28;20410;-63
2021/10/30 08:15:55;;;;;;;1999.90;999.90;;;;;;;12.87;59.43;100624.75;15623485;28;20107;-62
2021/10/30 08:23:29;;;;;;;1999.90;999.90;;;;;;;13.38;58.21;100613.97;15617741;28;20042;-63
2021/10/30 08:31:01;;;;;;;1999.90;999.90;;;;;;;13.86;56.72;100610.19;15572499;28;20100;-60
2021/10/30 08:38:36;;;;;;;1999.90;999.90;;;;;;;14.76;54.00;100615.34;15522199;28;20105;-63
2021/10/30 08:46:09;;;;;;;1999.90;999.90;;;;;;;15.39;51.92;100589.91;15555287;28;20524;-61
2021/10/30 08:53:43;;;;;;;1999.90;999.90;;;;;;;15.59;51.44;100571.84;15538107;28;20723;-64
2021/10/30 09:01:17;;;;;;;1999.90;999.90;;;;;;;16.23;49.25;100570.31;15555046;28;20402;-62
2021/10/30 09:09:04;;;;;;;1999.90;999.90;;;;;;;16.94;47.33;100548.97;15551541;28;20052;-56
2021/10/30 09:16:37;;;;;;;1999.90;999.90;;;;;;;17.94;45.92;100540.97;15553933;28;20041;-61
2021/10/30 09:24:14;;;;;;;1999.90;999.90;;;;;;;19.26;44.24;100526.66;15554699;28;20037;-61
2021/10/30 09:31:46;;;;;;;1999.90;999.90;;;;;;;19.18;42.69;100513.72;15555489;28;20121;-63
2021/10/30 09:39:21;;;;;;;1999.90;999.90;;;;;;;19.02;43.82;100519.69;15558749;28;20033;-61
2021/10/30 09:46:57;;;;;;;1999.90;999.90;;;;;;;19.39;43.13;100524.31;15541993;28;20097;-62
2021/10/30 09:54:32;;;;;;;1999.90;999.90;;;;;;;19.03;43.82;100514.84;15546398;28;20693;-62
2021/10/30 10:02:08;;;;;;;1999.90;999.90;;;;;;;19.41;43.48;100504.13;15540911;28;20053;-62
2021/10/30 10:09:42;;;;;;;1999.90;999.90;;;;;;;19.67;42.86;100495.31;15557831;28;20569;-63
2021/10/30 10:17:15;;;;;;;1999.90;999.90;;;;;;;20.66;41.38;100480.44;15541872;28;20129;-63
2021/10/30 10:24:50;;;;;;;1999.90;999.90;;;;;;;20.49;40.90;100475.59;15629911;22;20060;-74
2021/10/30 10:32:25;;;;;;;1999.90;999.90;;;;;;;21.45;39.77;100455.47;15624898;22;20569;-57
2021/10/30 10:40:03;;;;;;;1999.90;999.90;;;;;;;21.08;39.60;100453.19;15667904;28;20483;-57
2021/10/30 10:48:02;;;;;;;1999.90;999.90;;;;;;;21.31;39.20;100433.66;15555338;28;20070;-58
2021/10/30 10:55:39;;;;;;;1999.90;999.90;;;;;;;21.90;38.21;100433.69;15361913;29;20063;-59
2021/10/30 11:03:26;;;;;;;1999.90;999.90;;;;;;;21.91;37.70;100417.44;15375789;28;20075;-62
2021/10/30 11:11:25;;;;;;;1999.90;999.90;;;;;;;21.45;38.30;100410.03;15533756;28;20049;-61
2021/10/30 11:19:22;;;;;;;1999.90;999.90;;;;;;;22.23;36.75;100403.00;15557989;28;20056;-58
2021/10/30 11:27:01;;;;;;;1999.90;999.90;;;;;;;22.00;37.30;100402.78;15571588;28;20477;-57
2021/10/30 11:34:34;;;;;;;1999.90;999.90;;;;;;;20.90;38.89;100393.69;15564829;28;20042;-60
2021/10/30 11:42:09;;;;;;;1999.90;999.90;;;;;;;22.97;35.88;100394.91;15551591;28;20092;-60
2021/10/30 11:49:43;;;;;;;1999.90;999.90;;;;;;;23.71;33.91;100387.38;15544970;28;20061;-58
2021/10/30 11:57:18;;;;;;;1999.90;999.90;;;;;;;22.90;34.47;100390.09;15557610;28;20050;-58
2021/10/30 12:04:51;;;;;;;1999.90;999.90;;;;;;;23.57;33.55;100365.59;15557974;28;20075;-58
2021/10/30 12:12:25;;;;;;;1999.90;999.90;;;;;;;24.82;31.96;100354.84;15536451;28;20117;-59
2021/10/30 12:20:04;;;;;;;1999.90;999.90;;;;;;;24.75;31.60;100338.66;15552755;28;20415;-58
2021/10/30 12:27:40;;;;;;;1999.90;999.90;;;;;;;24.40;32.38;100322.28;15550711;28;20525;-59
2021/10/30 12:35:19;;;;;;;1999.90;999.90;;;;;;;23.90;33.40;100311.78;15550147;28;20045;-56
2021/10/30 12:43:05;;;;;;;1999.90;999.90;;;;;;;23.79;35.23;100294.88;15533304;28;20164;-58
2021/10/30 12:50:38;;;;;;;1999.90;999.90;;;;;;;20.06;40.25;100282.19;15532748;28;20054;-59
2021/10/30 12:58:12;;;;;;;1999.90;999.90;;;;;;;18.66;44.42;100275.63;15533698;28;20050;-59
2021/10/30 13:05:46;;;;;;;1999.90;999.90;;;;;;;18.61;44.95;100275.97;15549238;28;20475;-59
2021/10/30 13:13:20;;;;;;;1999.90;999.90;;;;;;;21.09;39.84;100273.25;15550576;28;20403;-58
2021/10/30 13:20:54;;;;;;;1999.90;999.90;;;;;;;21.32;38.15;100269.88;15532146;28;20058;-58
2021/10/30 13:28:28;;;;;;;1999.90;999.90;;;;;;;19.87;39.92;100243.78;15550179;28;20129;-57
2021/10/30 13:36:01;;;;;;;1999.90;999.90;;;;;;;18.71;42.44;100232.03;15534198;28;20379;-56
2021/10/30 13:43:35;;;;;;;1999.90;999.90;;;;;;;18.17;43.25;100225.38;15576354;28;20108;-59
2021/10/30 13:51:07;;;;;;;1999.90;999.90;;;;;;;17.46;43.89;100234.16;15563366;28;20060;-58
2021/10/30 13:58:45;;;;;;;1999.90;999.90;;;;;;;17.74;43.56;100224.31;15588510;28;20589;-59
2021/10/30 14:06:19;;;;;;;1999.90;999.90;;;;;;;17.73;43.94;100211.44;15593261;28;20057;-57
2021/10/30 14:13:56;;;;;;;1999.90;999.90;;;;;;;17.65;44.34;100212.53;15599501;28;20066;-59
2021/10/30 14:21:28;;;;;;;1999.90;999.90;;;;;;;17.44;44.63;100221.66;15610979;28;20041;-59
2021/10/30 14:29:03;;;;;;;1999.90;999.90;;;;;;;17.13;45.71;100217.38;15568670;28;20775;-60
2021/10/30 14:36:35;;;;;;;1999.90;999.90;;;;;;;16.62;47.24;100209.63;15520517;28;20124;-60
2021/10/30 14:44:09;;;;;;;1999.90;999.90;;;;;;;17.00;46.29;100214.06;15562965;28;20053;-60
2021/10/30 14:51:42;;;;;;;1999.90;999.90;;;;;;;16.74;46.77;100223.44;15558873;28;20048;-59
2021/10/30 14:59:16;;;;;;;1999.90;999.90;;;;;;;17.10;46.05;100223.81;15557577;28;20092;-57
2021/10/30 15:06:50;;;;;;;1999.90;999.90;;;;;;;16.67;46.54;100227.00;15575276;28;20049;-58
2021/10/30 15:14:24;;;;;;;1999.90;999.90;;;;;;;16.20;47.52;100210.75;15539207;28;20046;-61
2021/10/30 15:22:02;;;;;;;1999.90;999.90;;;;;;;16.40;47.28;100212.19;15556017;28;20081;-59
2021/10/30 15:29:37;;;;;;;1999.90;999.90;;;;;;;16.02;47.64;100221.78;15537770;28;20446;-60
2021/10/30 15:37:09;;;;;;;1999.90;999.90;;;;;;;15.92;48.14;100225.25;15558243;28;20482;-61
2021/10/30 15:44:45;;;;;;;1999.90;999.90;;;;;;;16.04;48.15;100216.56;15600726;28;20055;-61
2021/10/30 15:52:18;;;;;;;1999.90;999.90;;;;;;;15.66;48.87;100211.22;15617152;28;20045;-62
2021/10/30 15:59:55;;;;;;;1999.90;999.90;;;;;;;15.38;49.22;100209.56;15596456;28;20045;-61
2021/10/30 16:07:28;;;;;;;1999.90;999.90;;;;;;;15.57;49.09;100215.09;15591611;28;20435;-61
2021/10/30 16:15:02;;;;;;;1999.90;999.90;;;;;;;15.17;49.50;100207.22;15565378;28;20052;-60
2021/10/30 16:22:39;;;;;;;1999.90;999.90;;;;;;;15.02;49.44;100194.94;15585546;28;20136;-59
2021/10/30 16:30:14;;;;;;;1999.90;999.90;;;;;;;14.58;50.44;100185.31;15548580;28;20115;-60
2021/10/30 16:37:46;;;;;;;1999.90;999.90;;;;;;;14.55;50.21;100209.34;15586175;28;20055;-59
2021/10/30 16:45:20;;;;;;;1999.90;999.90;;;;;;;14.54;50.01;100209.72;15601868;23;20033;-59
2021/10/30 16:52:53;;;;;;;1999.90;999.90;;;;;;;14.64;50.03;100220.34;15739574;28;20029;-61
2021/10/30 17:00:27;;;;;;;1999.90;999.90;;;;;;;14.88;50.47;100236.81;15683874;28;20045;-58
2021/10/30 17:07:59;;;;;;;1999.90;999.90;;;;;;;14.59;52.24;100241.13;15637593;28;20216;-59
2021/10/30 17:15:33;;;;;;;1999.90;999.90;;;;;;;14.20;53.44;100233.88;15671127;28;20052;-56
2021/10/30 17:23:06;;;;;;;1999.90;999.90;;;;;;;13.76;54.89;100226.53;15636614;28;20037;-59
2021/10/30 17:30:40;;;;;;;1999.90;999.90;;;;;;;13.52;55.36;100221.16;15694954;28;20037;-58
2021/10/30 17:38:13;;;;;;;1999.90;999.90;;;;;;;13.27;55.30;100251.38;15735771;28;20086;-59
2021/10/30 17:45:47;;;;;;;1999.90;999.90;;;;;;;13.29;54.63;100247.03;15743327;28;20053;-61
2021/10/30 17:53:21;;;;;;;1999.90;999.90;;;;;;;13.24;54.52;100246.50;15743887;28;20044;-61
2021/10/30 18:00:55;;;;;;;1999.90;999.90;;;;;;;13.27;54.01;100243.78;15741839;28;20056;-58
2021/10/30 18:08:27;;;;;;;1999.90;999.90;;;;;;;13.26;53.52;100256.16;15743457;28;20094;-59
2021/10/30 18:16:02;;;;;;;1999.90;999.90;;;;;;;13.10;53.94;100252.50;15742560;28;20235;-59
2021/10/30 18:23:35;;;;;;;1999.90;999.90;;;;;;;13.33;53.19;100247.09;15742809;28;20094;-60
2021/10/30 18:31:09;;;;;;;1999.90;999.90;;;;;;;13.75;52.39;100261.31;15724648;28;20408;-58
2021/10/30 18:38:41;;;;;;;1999.90;999.90;;;;;;;13.63;52.52;100258.66;15745955;28;20048;-60
2021/10/30 18:46:15;;;;;;;1999.90;999.90;;;;;;;13.56;52.62;100261.31;15741251;28;20127;-59
2021/10/30 18:53:48;;;;;;;1999.90;999.90;;;;;;;13.58;52.69;100270.16;15741821;28;20045;-59
2021/10/30 19:01:21;;;;;;;1999.90;999.90;;;;;;;13.56;52.87;100270.53;15723177;28;20032;-60
2021/10/30 19:08:54;;;;;;;1999.90;999.90;;;;;;;13.29;53.33;100275.06;15722076;28;20044;-59
2021/10/30 19:16:29;;;;;;;1999.90;999.90;;;;;;;13.70;52.80;100267.22;15740254;28;20394;-59
2021/10/30 19:24:01;;;;;;;1999.90;999.90;;;;;;;13.81;52.77;100284.31;15739176;28;20036;-60
2021/10/30 19:31:35;;;;;;;1999.90;999.90;;;;;;;13.69;53.27;100288.03;15716198;28;20040;-60
2021/10/30 19:39:10;;;;;;;1999.90;999.90;;;;;;;14.10;52.37;100277.34;15737896;28;20052;-56
2021/10/30 19:46:45;;;;;;;1999.90;999.90;;;;;;;14.16;52.22;100290.69;15737735;28;20531;-60
2021/10/30 19:54:18;;;;;;;1999.90;999.90;;;;;;;14.24;52.07;100288.88;15720432;28;20505;-61
2021/10/30 20:01:52;;;;;;;1999.90;999.90;;;;;;;14.29;51.83;100294.22;15736260;28;20052;-61
2021/10/30 20:09:25;;;;;;;1999.90;999.90;;;;;;;14.45;51.65;100294.16;15702172;28;20052;-64
2021/10/30 20:16:59;;;;;;;1999.90;999.90;;;;;;;14.36;51.97;100310.38;15735459;28;20111;-60
2021/10/30 20:24:31;;;;;;;1999.90;999.90;;;;;;;14.12;52.27;100298.25;15717388;28;20048;-62
2021/10/30 20:32:07;;;;;;;;;;;;;;;14.36;52.03;100313.97;15717277;28;20737;-63
2021/10/30 20:39:39;;;;;;;1999.90;999.90;;;;;;;14.00;52.79;100303.97;15734399;28;19931;-58
2021/10/30 20:47:13;;;;;;;1999.90;999.90;;;;;;;13.99;52.69;100319.19;15734688;28;20339;-60
2021/10/30 20:54:46;;;;;;;1999.90;999.90;;;;;;;14.03;52.80;100319.25;15716352;28;20052;-60
2021/10/30 21:02:20;;;;;;;1999.90;999.90;;;;;;;13.77;53.21;100320.69;15718317;28;20148;-59
2021/10/30 21:09:52;;;;;;;1999.90;999.90;;;;;;;13.58;53.64;100327.03;15736692;28;20559;-58
2021/10/30 21:17:26;;;;;;;1999.90;999.90;;;;;;;13.62;53.67;100327.09;15747246;28;20048;-57
2021/10/30 21:24:59;;;;;;;1999.90;999.90;;;;;;;13.45;54.30;100331.13;15748670;28;20044;-58
2021/10/30 21:32:33;;;;;;;1999.90;999.90;;;;;;;13.29;54.85;100327.47;15730014;28;20040;-58
2021/10/30 21:40:06;;;;;;;1999.90;999.90;;;;;;;13.32;54.77;100345.56;15746992;28;20125;-60
2021/10/30 21:47:40;;;;;;;1999.90;999.90;;;;;;;13.15;54.88;100341.91;15746533;28;20245;-60
2021/10/30 21:55:13;;;;;;;1999.90;999.90;;;;;;;13.41;54.12;100352.59;15746536;28;20063;-56
2021/10/30 22:02:47;;;;;;;1999.90;999.90;;;;;;;13.57;53.43;100338.59;15739760;28;20052;-59
2021/10/30 22:10:20;;;;;;;1999.90;999.90;;;;;;;13.50;53.08;100364.47;15745330;28;20076;-59
2021/10/30 22:17:54;;;;;;;1999.90;999.90;;;;;;;13.38;53.58;100366.53;15727433;28;20068;-58
2021/10/30 22:25:27;;;;;;;1999.90;999.90;;;;;;;13.37;53.05;100374.13;15725808;28;20064;-60
2021/10/30 22:33:03;;;;;;;1999.90;999.90;;;;;;;13.31;53.16;100366.34;15743056;28;20045;-61
2021/10/30 22:40:36;;;;;;;1999.90;999.90;;;;;;;13.47;52.82;100365.19;15725569;28;20068;-57
2021/10/30 22:48:10;;;;;;;1999.90;999.90;;;;;;;13.50;52.82;100380.47;15770102;22;20048;-57
2021/10/30 22:55:43;;;;;;;1999.90;999.90;;;;;;;13.51;52.89;100379.28;15736564;28;20040;-56
2021/10/30 23:03:17;;;;;;;1999.90;999.90;;;;;;;13.43;53.13;100374.66;15793828;28;20046;-59
2021/10/30 23:10:49;;;;;;;1999.90;999.90;;;;;;;13.16;53.57;100365.94;15793502;28;20512;-58
2021/10/30 23:18:23;;;;;;;1999.90;999.90;;;;;;;13.19;53.35;100375.63;15811428;28;20504;-57
2021/10/30 23:25:56;;;;;;;1999.90;999.90;;;;;;;13.29;53.22;100377.91;15809963;28;20119;-59
2021/10/30 23:33:30;;;;;;;1999.90;999.90;;;;;;;13.32;53.29;100371.56;15746952;28;20098;-59
2021/10/30 23:41:02;;;;;;;1999.90;999.90;;;;;;;13.16;53.76;100379.94;15745670;28;20120;-57
2021/10/30 23:48:38;;;;;;;1999.90;999.90;;;;;;;13.41;53.49;100382.63;15744590;28;20500;-58
2021/10/30 23:56:11;;;;;;;1999.90;999.90;;;;;;;13.18;54.24;100396.41;15744920;28;20043;-61
